Garden Prairie, IL (61038)

5:02 AM CST on January 23, 2017 (GMT -0600)
Hidden Farms Estates | | Change Station
Active Advisory: Marine Fog Advisory

Elev 817 ft 42.20 °N, 88.66 °W | Updated 17 seconds ago

Overcast
Overcast
35.8 °F
Feels Like 36 °F
N
0.0
Wind Variable Wind from WNW

Today
High -- | Low -- °F
--% Chance of Precip.
Yesterday
High -- | Low -- °F
Precip. -- in
Pressure 29.78 in
Visibility 2.0 miles
Clouds Overcast 200 ft
Windchill 36 °F
Dew Point 35 °F
Humidity 96%
Rainfall 0.00 in
Snow Depth Not available.
7:16 AM 4:58 PM
Waning Crescent, 19% visible
METAR KRFD 231054Z 34008KT 2SM BR OVC002 03/02 A2976 RMK AO2 DZE53 SLP083 P0000 T00280017
Pressure 29.78 in
Visibility 2.0 miles
Clouds Overcast 200 ft
Windchill 36 °F
Dew Point 35 °F
Humidity 96%
Rainfall 0.00 in
Snow Depth Not available.
7:16 AM 4:58 PM
Waning Crescent, 19% visible
METAR KRFD 231054Z 34008KT 2SM BR OVC002 03/02 A2976 RMK AO2 DZE53 SLP083 P0000 T00280017

Get Your Daily Forecast Email!

Thanks for signing up!

Be on the lookout for a verification email in your inbox.

You'll start receiving the daily forecast at 8 AM.

×

10-Day Weather Forecast

Almanac

Astronomy

Jan. 23, 2017 Rise Set
Actual Time
Civil Twilight
Nautical Twilight
Astronomical Twilight
Moon
Length of Visible Light
Length of Day
Tomorrow will be .
, % of the Moon is Illuminated

Today's Extremes

State Highs State Lows

Community

WunderPhotos

Upload Photos

1,962,540 photos uploaded!

WunderBlog® & News

Nearby

Air Quality

  Air Quality AQ Index Pollutant
Not available.

Snow Depth

Station Depth Elevation

Earthquake Activity

City Distance Mag. Time & Date
Minimum magnitude displayed is 2.5.

Coastal Water Temperatures

Place Temperature

Stations

Nearby Weather Stations

Station Location Temp. Windchill Dew Point Humidity Wind Precip. Elev Updated Type
                   

Watches & Warnings

Marine Fog Advisory
Issued: 3:12 AM CST Jan. 23, 2017 – National Weather Service

... Dense fog advisory remains in effect until 9 am CST this
morning...

* visibility... less than one half mile.

Precautionary/preparedness actions...

A dense fog advisory means visibilities will frequently be
reduced to less than one mile. Inexperienced mariners...
especially those operating smaller vessels should avoid
navigating in these conditions.



Mtf